Time,TemperatureF,DewpointF,PressureIn,WindDirection,WindDirectionDegrees,WindSpeedMPH,WindSpeedGustMPH,Humidity,HourlyPrecipIn,Conditions,Clouds,dailyrainin,SoftwareType,DateUTC
2013-07-05 00:11:00,81.0,73.0,30.15,SE,139,7.0,11.0,76,-99.99,,,-99.99,,2013-07-05 04:11:00,
2013-07-05 00:22:00,81.0,73.0,30.15,SE,139,7.0,11.0,76,-99.99,,,-99.99,,2013-07-05 04:22:00,
2013-07-05 00:43:00,81.0,74.0,30.14,SE,141,8.0,14.0,77,-99.99,,,-99.99,,2013-07-05 04:43:00,
2013-07-05 00:53:00,81.0,74.0,30.13,SE,134,9.0,14.0,78,-99.99,,,-99.99,,2013-07-05 04:53:00,
2013-07-05 01:12:00,81.0,74.0,30.12,SE,136,9.0,16.0,80,-99.99,,,-99.99,,2013-07-05 05:12:00,
2013-07-05 01:22:00,81.0,74.0,30.12,SE,136,9.0,16.0,80,-99.99,,,-99.99,,2013-07-05 05:22:00,
2013-07-05 01:43:00,80.0,74.0,30.12,SE,135,8.0,13.0,80,-99.99,,,-99.99,,2013-07-05 05:43:00,
2013-07-05 02:02:00,80.0,75.0,30.12,SE,131,8.0,16.0,82,-99.99,,,-99.99,,2013-07-05 06:02:00,
2013-07-05 02:13:00,80.0,75.0,30.12,SE,131,8.0,16.0,82,-99.99,,,-99.99,,2013-07-05 06:13:00,
2013-07-05 02:23:00,81.0,74.0,30.12,SE,144,9.0,14.0,81,-99.99,,,-99.99,,2013-07-05 06:23:00,
2013-07-05 02:44:00,81.0,74.0,30.12,SSE,152,7.0,13.0,78,-99.99,,,-99.99,,2013-07-05 06:44:00,
2013-07-05 02:53:00,81.0,74.0,30.11,SSE,159,6.0,12.0,78,-99.99,,,-99.99,,2013-07-05 06:53:00,
2013-07-05 03:12:00,81.0,74.0,30.10,SSE,164,4.0,9.0,80,-99.99,,,-99.99,,2013-07-05 07:12:00,
2013-07-05 03:23:00,81.0,74.0,30.10,SSE,164,4.0,9.0,80,-99.99,,,-99.99,,2013-07-05 07:23:00,
2013-07-05 03:43:00,81.0,74.0,30.10,SE,136,7.0,12.0,79,-99.99,,,-99.99,,2013-07-05 07:43:00,
2013-07-05 04:12:00,80.0,74.0,30.08,SE,130,8.0,14.0,81,-99.99,,,-99.99,,2013-07-05 08:12:00,
2013-07-05 04:23:00,80.0,74.0,30.08,SE,130,8.0,14.0,81,-99.99,,,-99.99,,2013-07-05 08:23:00,
2013-07-05 04:33:00,80.0,74.0,30.08,SE,130,8.0,14.0,81,-99.99,,,-99.99,,2013-07-05 08:33:00,
2013-07-05 04:57:00,80.0,74.0,30.08,SE,129,11.0,18.0,81,-99.99,,,-99.99,,2013-07-05 08:57:00,
2013-07-05 05:16:00,79.0,72.0,30.08,SE,144,11.0,22.0,79,-99.99,,,-99.99,,2013-07-05 09:16:00,
2013-07-05 05:27:00,79.0,72.0,30.08,SE,144,11.0,22.0,79,-99.99,,,-99.99,,2013-07-05 09:27:00,
2013-07-05 05:48:00,76.0,70.0,30.07,SSE,156,6.0,11.0,82,-99.99,,,-99.99,,2013-07-05 09:48:00,
2013-07-05 05:57:00,76.0,70.0,30.08,SSE,161,3.0,6.0,81,-99.99,,,-99.99,,2013-07-05 09:57:00,
2013-07-05 06:18:00,76.0,71.0,30.08,SSE,148,3.0,10.0,82,-99.99,,,-99.99,,2013-07-05 10:18:00,
2013-07-05 06:47:00,80.0,73.0,30.08,SE,136,11.0,18.0,78,-99.99,,,-99.99,,2013-07-05 10:47:00,
2013-07-05 06:58:00,80.0,73.0,30.09,SE,135,9.0,15.0,79,-99.99,,,-99.99,,2013-07-05 10:58:00,
2013-07-05 07:18:00,80.0,73.0,30.09,SE,134,9.0,15.0,79,-99.99,,,-99.99,,2013-07-05 11:18:00,
2013-07-05 07:25:00,80.0,73.0,30.09,SE,134,9.0,15.0,79,-99.99,,,-99.99,,2013-07-05 11:25:00,
2013-07-05 07:47:00,80.0,73.0,30.10,SE,131,10.0,15.0,78,-99.99,,,-99.99,,2013-07-05 11:47:00,
2013-07-05 08:16:00,81.0,74.0,30.10,SE,125,9.0,19.0,79,-99.99,,,-99.99,,2013-07-05 12:16:00,
2013-07-05 08:25:00,81.0,74.0,30.10,SE,125,9.0,19.0,79,-99.99,,,-99.99,,2013-07-05 12:25:00,
2013-07-05 09:00:00,82.0,74.0,30.11,SE,132,11.0,18.0,77,-99.99,,,-99.99,,2013-07-05 13:00:00,
2013-07-05 09:13:00,82.0,74.0,30.12,SE,129,12.0,21.0,75,-99.99,,,-99.99,,2013-07-05 13:13:00,
2013-07-05 09:25:00,82.0,74.0,30.12,SE,129,12.0,21.0,75,-99.99,,,-99.99,,2013-07-05 13:25:00,
2013-07-05 09:48:00,82.0,74.0,30.12,SE,127,12.0,21.0,76,-99.99,,,-99.99,,2013-07-05 13:48:00,
2013-07-05 09:58:00,82.0,74.0,30.12,SE,127,12.0,21.0,76,-99.99,,,-99.99,,2013-07-05 13:58:00,
2013-07-05 10:16:00,82.0,74.0,30.12,SE,131,13.0,23.0,77,-99.99,,,-99.99,,2013-07-05 14:16:00,
2013-07-05 10:28:00,82.0,74.0,30.12,SE,131,13.0,23.0,77,-99.99,,,-99.99,,2013-07-05 14:28:00,
2013-07-05 10:38:00,82.0,74.0,30.12,SE,131,13.0,23.0,77,-99.99,,,-99.99,,2013-07-05 14:38:00,
2013-07-05 10:46:00,83.0,74.0,30.12,SE,130,13.0,20.0,74,-99.99,,,-99.99,,2013-07-05 14:46:00,
2013-07-05 10:58:00,83.0,75.0,30.12,SE,126,12.0,21.0,74,-99.99,,,-99.99,,2013-07-05 14:58:00,
2013-07-05 11:17:00,84.0,75.0,30.12,SE,130,12.0,22.0,73,-99.99,,,-99.99,,2013-07-05 15:17:00,
2013-07-05 11:24:00,84.0,75.0,30.12,SE,130,12.0,22.0,73,-99.99,,,-99.99,,2013-07-05 15:24:00,
2013-07-05 11:34:00,84.0,75.0,30.12,SE,130,12.0,22.0,73,-99.99,,,-99.99,,2013-07-05 15:34:00,
2013-07-05 11:43:00,84.0,75.0,30.12,SE,128,12.0,21.0,73,-99.99,,,-99.99,,2013-07-05 15:43:00,
2013-07-05 12:00:00,80.0,75.0,30.12,SE,125,11.0,21.0,83,-99.99,,,-99.99,,2013-07-05 16:00:00,
2013-07-05 12:11:00,82.0,74.0,30.12,SE,128,13.0,25.0,76,-99.99,,,-99.99,,2013-07-05 16:11:00,
2013-07-05 12:33:00,78.0,74.0,30.12,SE,134,13.0,25.0,87,-99.99,,,-99.99,,2013-07-05 16:33:00,
2013-07-05 12:53:00,80.0,75.0,30.12,SE,125,11.0,21.0,83,-99.99,,,-99.99,,2013-07-05 16:53:00,
2013-07-05 14:02:00,81.0,74.0,30.13,SE,137,13.0,20.0,76,-99.99,,,-99.99,,2013-07-05 18:02:00,
2013-07-05 14:22:00,81.0,73.0,30.13,SE,130,14.0,23.0,76,-99.99,,,-99.99,,2013-07-05 18:22:00,
2013-07-05 14:33:00,81.0,73.0,30.13,SE,130,14.0,23.0,76,-99.99,,,-99.99,,2013-07-05 18:33:00,
2013-07-05 14:43:00,81.0,73.0,30.12,SE,132,14.0,22.0,77,-99.99,,,-99.99,,2013-07-05 18:43:00,
2013-07-05 15:02:00,80.0,73.0,30.12,ESE,121,9.0,15.0,77,-99.99,,,-99.99,,2013-07-05 19:02:00,
2013-07-05 15:12:00,82.0,74.0,30.11,SE,128,10.0,16.0,77,-99.99,,,-99.99,,2013-07-05 19:12:00,
2013-07-05 15:22:00,82.0,74.0,30.11,SE,128,10.0,16.0,77,-99.99,,,-99.99,,2013-07-05 19:22:00,
2013-07-05 15:43:00,81.0,74.0,30.10,SE,129,9.0,16.0,80,-99.99,,,-99.99,,2013-07-05 19:43:00,
2013-07-05 16:02:00,82.0,75.0,30.10,SE,132,10.0,20.0,78,-99.99,,,-99.99,,2013-07-05 20:02:00,
2013-07-05 16:22:00,83.0,74.0,30.09,SE,134,14.0,21.0,72,-99.99,,,-99.99,,2013-07-05 20:22:00,
2013-07-05 16:43:00,83.0,73.0,30.08,SE,135,14.0,24.0,70,-99.99,,,-99.99,,2013-07-05 20:43:00,
2013-07-05 17:01:00,84.0,74.0,30.08,SE,137,12.0,19.0,71,-99.99,,,-99.99,,2013-07-05 21:01:00,
2013-07-05 17:12:00,83.0,74.0,30.07,SE,135,15.0,22.0,72,-99.99,,,-99.99,,2013-07-05 21:12:00,
2013-07-05 17:22:00,83.0,74.0,30.07,SE,135,15.0,22.0,72,-99.99,,,-99.99,,2013-07-05 21:22:00,
2013-07-05 17:34:00,83.0,74.0,30.07,SE,135,15.0,22.0,72,-99.99,,,-99.99,,2013-07-05 21:34:00,
2013-07-05 17:43:00,83.0,73.0,30.06,SE,135,15.0,22.0,70,-99.99,,,-99.99,,2013-07-05 21:43:00,
2013-07-05 18:11:00,83.0,72.0,30.06,SE,138,14.0,22.0,69,-99.99,,,-99.99,,2013-07-05 22:11:00,
2013-07-05 18:22:00,83.0,72.0,30.06,SE,138,14.0,22.0,69,-99.99,,,-99.99,,2013-07-05 22:22:00,
2013-07-05 18:43:00,82.0,71.0,30.06,SE,133,14.0,23.0,69,-99.99,,,-99.99,,2013-07-05 22:43:00,
2013-07-05 19:11:00,82.0,72.0,30.06,SE,136,13.0,21.0,70,-99.99,,,-99.99,,2013-07-05 23:11:00,
2013-07-05 19:23:00,82.0,72.0,30.06,SE,136,13.0,21.0,70,-99.99,,,-99.99,,2013-07-05 23:23:00,
2013-07-05 19:32:00,82.0,72.0,30.06,SE,136,13.0,21.0,70,-99.99,,,-99.99,,2013-07-05 23:32:00,
2013-07-05 19:43:00,81.0,71.0,30.07,SE,137,11.0,17.0,71,-99.99,,,-99.99,,2013-07-05 23:43:00,
2013-07-05 20:02:00,81.0,72.0,30.07,SE,142,11.0,19.0,72,-99.99,,,-99.99,,2013-07-06 00:02:00,
2013-07-05 20:12:00,81.0,73.0,30.08,SE,140,10.0,17.0,74,-99.99,,,-99.99,,2013-07-06 00:12:00,
2013-07-05 20:22:00,81.0,73.0,30.08,SE,140,10.0,17.0,74,-99.99,,,-99.99,,2013-07-06 00:22:00,
2013-07-05 20:33:00,81.0,73.0,30.08,SE,140,10.0,17.0,74,-99.99,,,-99.99,,2013-07-06 00:33:00,
2013-07-05 20:42:00,81.0,73.0,30.08,SE,134,10.0,19.0,75,-99.99,,,-99.99,,2013-07-06 00:42:00,
2013-07-05 20:53:00,81.0,73.0,30.08,SE,134,10.0,19.0,75,-99.99,,,-99.99,,2013-07-06 00:53:00,
2013-07-05 21:02:00,81.0,72.0,30.08,SE,138,10.0,16.0,75,-99.99,,,-99.99,,2013-07-06 01:02:00,
2013-07-05 21:12:00,81.0,72.0,30.09,SE,140,10.0,18.0,74,-99.99,,,-99.99,,2013-07-06 01:12:00,
2013-07-05 21:22:00,81.0,72.0,30.09,SE,140,10.0,18.0,74,-99.99,,,-99.99,,2013-07-06 01:22:00,
2013-07-05 21:33:00,81.0,72.0,30.09,SE,140,10.0,18.0,74,-99.99,,,-99.99,,2013-07-06 01:33:00,
2013-07-05 21:43:00,80.0,72.0,30.10,SE,142,11.0,17.0,74,-99.99,,,-99.99,,2013-07-06 01:43:00,
2013-07-05 21:53:00,80.0,72.0,30.10,SE,142,11.0,17.0,74,-99.99,,,-99.99,,2013-07-06 01:53:00,
2013-07-05 22:02:00,80.0,72.0,30.10,SE,144,9.0,17.0,75,-99.99,,,-99.99,,2013-07-06 02:02:00,
2013-07-05 22:22:00,80.0,72.0,30.10,SE,145,9.0,14.0,76,-99.99,,,-99.99,,2013-07-06 02:22:00,
2013-07-05 22:34:00,80.0,72.0,30.10,SE,145,9.0,14.0,76,-99.99,,,-99.99,,2013-07-06 02:34:00,
2013-07-05 22:43:00,80.0,72.0,30.10,SE,140,9.0,14.0,75,-99.99,,,-99.99,,2013-07-06 02:43:00,
2013-07-05 22:53:00,80.0,72.0,30.10,SE,140,9.0,14.0,75,-99.99,,,-99.99,,2013-07-06 02:53:00,
2013-07-05 23:22:00,81.0,73.0,30.11,SE,136,10.0,15.0,76,-99.99,,,-99.99,,2013-07-06 03:22:00,
2013-07-05 23:34:00,81.0,73.0,30.11,SE,136,10.0,15.0,76,-99.99,,,-99.99,,2013-07-06 03:34:00,
2013-07-05 23:53:00,80.0,72.0,30.12,SE,133,9.0,16.0,75,-99.99,,,-99.99,,2013-07-06 03:53:00,